Data for 01/21/2006

Time Sea-Level Adjusted Pressure Absolute Pressure Temperature Relative Humidity Dew Point   
(mb) (inHg) (mb) (inHg) (C) (F) (%) (C) (F)
00:05 1013 29.91 842 24.86 -0.7 30.7 52 -9.3 15.3
00:10 1013 29.91 842 24.86 -0.8 30.6 54 -8.9 15.9
00:15 1013 29.91 842 24.86 -1 30.2 55 -8.9 16
00:20 1013 29.91 842 24.86 -1.1 30.1 54 -9.3 15.3
00:25 1013 29.91 842 24.86 -1 30.1 54 -9.3 15.2
00:30 1013 29.91 842 24.86 -1 30.2 51 -9.9 14.2
00:35 1013 29.91 842 24.86 -0.8 30.5 50 -10 14
00:40 1013 29.91 842 24.86 -0.8 30.5 50 -10.1 13.8
00:45 1013 29.91 842 24.86 -0.9 30.3 51 -9.8 14.4
00:50 1013 29.91 842 24.86 -1 30.1 51 -9.8 14.3
00:55 1013 29.91 842 24.86 -1 30.1 53 -9.5 14.8
01:00 1013 29.91 842 24.86 -1.2 29.8 54 -9.4 15.1
01:05 1013 29.91 842 24.86 -1.3 29.6 54 -9.5 15
01:10 1013 29.91 842 24.86 -1.3 29.6 54 -9.4 15
01:15 1013 29.91 842 24.86 -1.4 29.5 55 -9.3 15.2
01:20 1013 29.91 842 24.86 -1.4 29.5 55 -9.4 15.1
01:25 1013 29.91 842 24.86 -1.4 29.4 56 -9.2 15.5
01:30 1013 29.91 842 24.86 -1.5 29.2 57 -9.1 15.7
01:35 1013 29.91 842 24.86 -1.6 29.1 56 -9.3 15.2
01:40 1013 29.91 842 24.86 -1.6 29.2 56 -9.2 15.4
01:45 1013 29.91 842 24.86 -1.6 29.1 57 -9.2 15.5
01:50 1013 29.91 842 24.86 -1.7 28.9 56 -9.5 15
01:55 1013 29.91 842 24.86 -1.7 29 55 -9.5 14.9
02:00 1013 29.91 842 24.86 -1.5 29.3 54 -9.6 14.7
02:05 1013 29.91 842 24.86 -1.4 29.5 54 -9.5 14.9
02:10 1013 29.91 842 24.86 -1.4 29.4 54 -9.5 15
02:15 1013 29.91 842 24.86 -1.4 29.4 54 -9.5 14.9
02:20 1013 29.91 842 24.86 -1.4 29.5 55 -9.3 15.3
02:25 1013 29.91 842 24.86 -1.7 29 56 -9.4 15.1
02:30 1013 29.91 842 24.86 -1.7 28.9 57 -9.2 15.5
02:35 1013 29.91 842 24.86 -2 28.5 57 -9.3 15.3
02:40 1013 29.91 842 24.86 -2 28.3 58 -9.3 15.3
02:45 1013 29.91 843 24.89 -2.1 28.1 57 -9.6 14.8
02:50 1013 29.91 843 24.89 -2.1 28.2 57 -9.5 14.8
02:55 1013 29.91 843 24.89 -2.1 28.2 57 -9.4 15
03:00 1013 29.91 843 24.89 -2.2 28 57 -9.6 14.7
03:05 1013 29.91 843 24.89 -2.1 28.1 57 -9.6 14.7
03:10 1013 29.91 843 24.89 -2.1 28.3 56 -9.6 14.7
03:15 1013 29.91 843 24.89 -2 28.3 57 -9.5 14.9
03:20 1013 29.91 843 24.89 -2.2 28 57 -9.6 14.7
03:25 1014 29.94 843 24.89 -2.2 28 57 -9.7 14.6
03:30 1014 29.94 843 24.89 -2.1 28.2 57 -9.6 14.8
03:35 1014 29.94 843 24.89 -2.2 28.1 57 -9.6 14.7
03:40 1014 29.94 843 24.89 -2.3 27.9 57 -9.6 14.8
03:45 1014 29.94 843 24.89 -2.4 27.7 58 -9.5 14.9
03:50 1014 29.94 843 24.89 -2.6 27.3 59 -9.4 15
03:55 1014 29.94 843 24.89 -2.7 27.2 60 -9.5 14.9
04:00 1014 29.94 843 24.89 -2.6 27.3 59 -9.5 14.9
04:05 1014 29.94 843 24.89 -2.6 27.4 59 -9.5 14.9
04:10 1014 29.94 843 24.89 -2.6 27.3 59 -9.6 14.7
04:15 1014 29.94 843 24.89 -2.6 27.4 58 -9.6 14.7
04:20 1014 29.94 843 24.89 -2.6 27.4 58 -9.7 14.6
04:25 1014 29.94 843 24.89 -2.4 27.6 58 -9.6 14.7
04:30 1014 29.94 843 24.89 -2.4 27.7 58 -9.6 14.8
04:35 1014 29.94 843 24.89 -2.5 27.6 60 -9.3 15.3
04:40 1014 29.94 843 24.89 -2.6 27.3 60 -9.4 15.1
04:45 1014 29.94 843 24.89 -2.7 27.1 61 -9.3 15.2
04:50 1014 29.94 843 24.89 -2.7 27.2 61 -9.2 15.4
04:55 1014 29.94 843 24.89 -2.8 27 62 -9.1 15.6
05:00 1014 29.94 843 24.89 -2.8 27 63 -8.9 15.9
05:05 1014 29.94 844 24.92 -2.8 27 62 -9.1 15.7
05:10 1014 29.94 844 24.92 -2.7 27.1 62 -9 15.8
05:15 1014 29.94 844 24.92 -2.6 27.3 62 -8.9 16
05:20 1014 29.94 844 24.92 -2.6 27.3 62 -8.9 16.1
05:25 1014 29.94 844 24.92 -2.6 27.3 62 -8.9 15.9
05:30 1015 29.97 844 24.92 -2.4 27.6 62 -8.8 16.2
05:35 1015 29.97 844 24.92 -2.4 27.6 62 -8.8 16.1
05:40 1015 29.97 844 24.92 -2.3 27.8 60 -9.1 15.6
05:45 1015 29.97 844 24.92 -2.3 27.8 61 -8.8 16.2
05:50 1015 29.97 844 24.92 -2.4 27.7 61 -9 15.8
05:55 1015 29.97 844 24.92 -2.3 27.9 60 -9.1 15.7
06:00 1015 29.97 844 24.92 -2.1 28.1 59 -9.1 15.7
06:05 1015 29.97 844 24.92 -2 28.3 58 -9.2 15.4
06:10 1015 29.97 844 24.92 -1.9 28.6 58 -9.1 15.7
06:15 1015 29.97 844 24.92 -2.1 28.3 61 -8.6 16.6
06:20 1015 29.97 844 24.92 -2.2 28 62 -8.5 16.8
06:25 1015 29.97 844 24.92 -2.3 27.8 64 -8.4 17
06:30 1015 29.97 844 24.92 -2.5 27.6 65 -8.2 17.2
06:35 1015 29.97 844 24.92 -2.5 27.6 66 -8 17.6
06:40 1015 29.97 845 24.95 -2.5 27.4 66 -8 17.5
06:45 1015 29.97 845 24.95 -2.5 27.6 66 -7.9 17.8
06:50 1015 29.97 845 24.95 -2.5 27.5 66 -8 17.7
06:55 1015 29.97 845 24.95 -2.5 27.5 67 -7.9 17.9
07:00 1016 30 845 24.95 -2.6 27.4 68 -7.7 18.1
07:05 1016 30 845 24.95 -2.6 27.3 68 -7.7 18.2
07:10 1016 30 845 24.95 -2.7 27.1 69 -7.7 18.2
07:15 1016 30 845 24.95 -2.7 27.1 69 -7.7 18.2
07:20 1016 30 845 24.95 -2.8 27 69 -7.6 18.2
07:25 1016 30 845 24.95 -2.8 26.9 69 -7.7 18.1
07:30 1016 30 845 24.95 -2.9 26.8 68 -8 17.7
07:35 1016 30 845 24.95 -2.9 26.7 68 -8.1 17.4
07:40 1016 30 845 24.95 -3 26.7 67 -8.3 17.1
07:45 1016 30 846 24.98 -2.9 26.8 67 -8.2 17.3
07:50 1016 30 846 24.98 -2.9 26.8 68 -8.1 17.5
07:55 1017 30.03 846 24.98 -2.9 26.9 67 -8.1 17.4
08:00 1017 30.03 846 24.98 -2.9 26.8 67 -8.1 17.4
08:05 1017 30.03 846 24.98 -2.8 27 67 -8 17.6
08:10 1017 30.03 846 24.98 -2.8 27 67 -8.1 17.4
08:15 1017 30.03 846 24.98 -2.8 27 67 -8.1 17.5
08:20 1017 30.03 846 24.98 -2.8 26.9 67 -8.2 17.3
08:25 1017 30.03 846 24.98 -2.9 26.8 66 -8.3 17.1
08:30 1017 30.03 846 24.98 -2.8 26.9 66 -8.2 17.2
08:35 1017 30.03 846 24.98 -2.8 27 66 -8.3 17
08:40 1017 30.03 846 24.98 -2.9 26.9 66 -8.4 16.9
08:45 1017 30.03 846 24.98 -2.9 26.8 66 -8.4 16.9
08:50 1017 30.03 846 24.98 -2.9 26.8 66 -8.4 16.8
08:55 1017 30.03 846 24.98 -2.9 26.8 65 -8.6 16.6
09:00 1017 30.03 846 24.98 -2.9 26.8 65 -8.5 16.6
09:05 1017 30.03 846 24.98 -2.9 26.8 66 -8.4 16.8
09:10 1017 30.03 846 24.98 -2.8 26.9 66 -8.4 16.9
09:15 1017 30.03 847 25.01 -2.7 27.1 65 -8.5 16.7
09:20 1017 30.03 847 25.01 -2.6 27.3 65 -8.4 17
09:25 1017 30.03 847 25.01 -2.6 27.4 63 -8.6 16.5
09:30 1017 30.03 847 25.01 -2.6 27.3 63 -8.7 16.3
09:35 1018 30.06 847 25.01 -2.6 27.3 64 -8.6 16.6
09:40 1018 30.06 847 25.01 -2.6 27.3 63 -8.6 16.5
09:45 1018 30.06 847 25.01 -2.6 27.3 63 -8.7 16.4
09:50 1018 30.06 847 25.01 -2.6 27.2 63 -8.7 16.3
09:55 1018 30.06 847 25.01 -2.5 27.4 63 -8.6 16.5
10:00 1018 30.06 847 25.01 -2.4 27.6 67 -7.8 18
10:05 1018 30.06 847 25.01 -2.2 28 65 -7.9 17.9
10:10 1018 30.06 847 25.01 -1.9 28.7 64 -7.8 18
10:15 1018 30.06 847 25.01 -1.7 29 61 -8.2 17.3
10:20 1018 30.06 847 25.01 -1.7 29 63 -7.8 18
10:25 1018 30.06 847 25.01 -1.7 28.9 63 -7.8 17.9
10:30 1018 30.06 847 25.01 -1.6 29.1 64 -7.6 18.3
10:35 1018 30.06 847 25.01 -1.5 29.3 64 -7.4 18.8
10:40 1018 30.06 847 25.01 -1.5 29.3 60 -8.3 17
10:45 1018 30.06 847 25.01 -1.5 29.4 59 -8.5 16.7
10:50 1018 30.06 847 25.01 -1.4 29.5 57 -8.8 16.2
10:55 1018 30.06 847 25.01 -1.3 29.6 58 -8.6 16.4
11:00 1018 30.06 847 25.01 -1.3 29.7 61 -7.9 17.7
11:05 1018 30.06 847 25.01 -1.4 29.5 65 -7.2 19.1
11:10 1018 30.06 847 25.01 -1.5 29.3 66 -7 19.3
11:15 1018 30.06 847 25.01 -1.6 29.1 69 -6.6 20.1
11:20 1018 30.06 847 25.01 -1.8 28.7 72 -6.2 20.8
11:25 1018 30.06 847 25.01 -1.8 28.7 71 -6.4 20.4
11:30 1018 30.06 847 25.01 -1.8 28.7 71 -6.4 20.4
11:35 1018 30.06 847 25.01 -1.9 28.6 73 -6.1 20.9
11:40 1018 30.06 847 25.01 -2 28.5 75 -5.9 21.5
11:45 1018 30.06 847 25.01 -1.8 28.8 75 -5.7 21.7
11:50 1018 30.06 847 25.01 -1.3 29.7 73 -5.6 22
11:55 1018 30.06 847 25.01 -0.8 30.6 71 -5.4 22.2
12:00 1018 30.06 847 25.01 -0.6 30.9 66 -6.1 21.1
12:05 1018 30.06 847 25.01 -0.2 31.7 63 -6.5 20.3
12:10 1018 30.06 847 25.01 -0.6 31 66 -6.2 20.9
12:15 1018 30.06 847 25.01 -1.2 29.8 68 -6.4 20.4
12:20 1018 30.06 847 25.01 -1.2 29.8 64 -7.1 19.2
12:25 1018 30.06 847 25.01 -0.6 30.9 63 -6.8 19.8
12:30 1018 30.06 847 25.01 -0.5 31 64 -6.6 20.2
12:35 1018 30.06 847 25.01 -0.2 31.6 62 -6.6 20.1
12:40 1018 30.06 847 25.01 0.3 32.5 61 -6.4 20.4
12:45 1018 30.06 847 25.01 0.1 32.1 61 -6.5 20.2
12:50 1018 30.06 847 25.01 0.3 32.5 61 -6.4 20.4
12:55 1018 30.06 847 25.01 0.3 32.6 61 -6.4 20.5
13:00 1018 30.06 847 25.01 0.2 32.3 62 -6.3 20.7
13:05 1018 30.06 847 25.01 0.6 33.1 60 -6.3 20.6
13:10 1018 30.06 847 25.01 1.4 34.6 55 -6.6 20.1
13:15 1018 30.06 847 25.01 1 33.9 56 -6.8 19.8
13:20 1018 30.06 847 25.01 0.7 33.3 59 -6.4 20.5
13:25 1018 30.06 847 25.01 0.8 33.5 56 -7 19.3
13:30 1018 30.06 847 25.01 0.4 32.7 56 -7.4 18.7
13:35 1018 30.06 847 25.01 1 33.8 54 -7.3 18.8
13:40 1018 30.06 847 25.01 1.8 35.2 50 -7.6 18.4
13:45 1018 30.06 847 25.01 2.4 36.3 48 -7.6 18.3
13:50 1018 30.06 847 25.01 1.9 35.5 54 -6.3 20.6
13:55 1018 30.06 847 25.01 0.8 33.4 61 -6 21.2
14:00 1018 30.06 847 25.01 -0.5 31.1 70 -5.3 22.5
14:05 1018 30.06 847 25.01 -0.9 30.4 72 -5.4 22.3
14:10 1018 30.06 847 25.01 -1.1 30.1 77 -4.6 23.7
14:15 1018 30.06 847 25.01 -1 30.2 74 -5.1 22.9
14:20 1018 30.06 847 25.01 -1.5 29.4 76 -5.2 22.6
14:25 1018 30.06 847 25.01 -1.9 28.5 76 -5.7 21.8
14:30 1018 30.06 847 25.01 -1.9 28.6 73 -6.1 21.1
14:35 1018 30.06 847 25.01 -1.7 28.9 71 -6.3 20.7
14:40 1018 30.06 847 25.01 -1.7 28.9 70 -6.6 20.1
14:45 1018 30.06 847 25.01 -1.8 28.7 70 -6.7 20
14:50 1018 30.06 847 25.01 -1.8 28.8 67 -7.1 19.3
14:55 1018 30.06 847 25.01 -1.4 29.5 61 -7.9 17.7
15:00 1018 30.06 847 25.01 -0.4 31.4 56 -8.2 17.3
15:05 1018 30.06 847 25.01 0.3 32.5 54 -7.9 17.8
15:10 1018 30.06 847 25.01 0.5 32.8 55 -7.5 18.5
15:15 1018 30.06 848 25.04 -0 31.9 59 -7.1 19.2
15:20 1018 30.06 848 25.04 -0.7 30.8 61 -7.3 18.9
15:25 1018 30.06 848 25.04 -1 30.2 61 -7.5 18.4
15:30 1018 30.06 848 25.04 -0.7 30.7 59 -7.7 18.2
15:35 1019 30.09 848 25.04 -0.4 31.3 60 -7.1 19.2
15:40 1019 30.09 848 25.04 -0.8 30.6 64 -6.7 19.9
15:45 1019 30.09 848 25.04 -1.4 29.5 66 -7 19.5
15:50 1019 30.09 848 25.04 -1.4 29.6 66 -7 19.4
15:55 1019 30.09 848 25.04 -1.4 29.5 63 -7.6 18.3
16:00 1019 30.09 848 25.04 -1.1 30 62 -7.5 18.5
16:05 1019 30.09 848 25.04 -1.2 29.8 60 -8.1 17.4
16:10 1019 30.09 848 25.04 -1.1 30 58 -8.4 17
16:15 1019 30.09 848 25.04 -1 30.2 57 -8.5 16.7
16:20 1019 30.09 848 25.04 -0.8 30.5 56 -8.5 16.7
16:25 1019 30.09 848 25.04 -0.7 30.8 55 -8.6 16.6
16:30 1019 30.09 848 25.04 -0.6 30.9 55 -8.6 16.6
16:35 1019 30.09 848 25.04 -0.5 31.1 55 -8.5 16.8
16:40 1019 30.09 848 25.04 -0.6 30.9 54 -8.8 16.2
16:45 1019 30.09 848 25.04 -0.6 30.9 54 -8.8 16.1
16:50 1019 30.09 848 25.04 -0.6 31 54 -8.7 16.3
16:55 1019 30.09 848 25.04 -0.6 31 54 -8.8 16.2
17:00 1019 30.09 848 25.04 -0.3 31.4 52 -9 15.8
17:05 1019 30.09 848 25.04 -0.3 31.4 52 -9.1 15.6
17:10 1019 30.09 848 25.04 -0.6 31 52 -9.2 15.4
17:15 1019 30.09 848 25.04 -0.7 30.7 53 -9.2 15.4
17:20 1019 30.09 848 25.04 -0.9 30.4 52 -9.5 15
17:25 1019 30.09 848 25.04 -0.9 30.3 52 -9.6 14.7
17:30 1019 30.09 848 25.04 -1.1 30 51 -10.1 13.8
17:35 1019 30.09 849 25.07 -1.2 29.8 50 -10.4 13.2
17:40 1019 30.09 849 25.07 -1.3 29.6 47 -11.2 11.9
17:45 1019 30.09 849 25.07 -1.4 29.4 48 -11.1 12
17:50 1019 30.09 849 25.07 -1.6 29.2 48 -11.2 11.9
17:55 1020 30.12 849 25.07 -1.8 28.7 48 -11.4 11.4
18:00 1020 30.12 849 25.07 -1.9 28.5 49 -11.4 11.5
18:05 1020 30.12 849 25.07 -2.1 28.3 50 -11.1 12
18:10 1020 30.12 849 25.07 -2.6 27.4 51 -11.3 11.7
18:15 1020 30.12 849 25.07 -3 26.7 52 -11.5 11.2
18:20 1020 30.12 849 25.07 -3.2 26.2 53 -11.5 11.4
18:25 1020 30.12 849 25.07 -3.4 25.8 53 -11.6 11
18:30 1020 30.12 849 25.07 -3.4 25.9 52 -11.8 10.7
18:35 1020 30.12 849 25.07 -3.6 25.6 54 -11.5 11.2
18:40 1020 30.12 849 25.07 -3.9 24.9 55 -11.8 10.8
18:45 1020 30.12 849 25.07 -3.9 24.9 54 -11.8 10.7
18:50 1020 30.12 849 25.07 -4 24.8 54 -12 10.4
18:55 1020 30.12 849 25.07 -4 24.8 53 -12.2 10.1
19:00 1020 30.12 849 25.07 -3.9 24.9 53 -12.2 10.1
19:05 1020 30.12 849 25.07 -4 24.8 53 -12.2 10.1
19:10 1020 30.12 849 25.07 -4.9 23.2 55 -12.5 9.5
19:15 1020 30.12 850 25.1 -5 22.9 56 -12.6 9.4
19:20 1020 30.12 850 25.1 -4.8 23.4 55 -12.6 9.3
19:25 1020 30.12 850 25.1 -4.3 24.2 53 -12.4 9.6
19:30 1020 30.12 850 25.1 -4.4 24.1 54 -12.4 9.7
19:35 1020 30.12 850 25.1 -4.8 23.3 55 -12.5 9.5
19:40 1020 30.12 850 25.1 -5 23 55 -12.7 9.2
19:45 1020 30.12 850 25.1 -5.2 22.7 56 -12.5 9.5
19:50 1020 30.12 850 25.1 -5 22.9 56 -12.6 9.4
19:55 1020 30.12 850 25.1 -5 23 56 -12.5 9.5
20:00 1020 30.12 850 25.1 -5.1 22.9 55 -12.7 9.1
20:05 1021 30.15 850 25.1 -5 23 55 -12.6 9.3
20:10 1021 30.15 850 25.1 -4.7 23.5 54 -12.7 9.2
20:15 1021 30.15 850 25.1 -4.8 23.3 54 -12.7 9.2
20:20 1021 30.15 850 25.1 -4.7 23.5 54 -12.8 8.9
20:25 1021 30.15 850 25.1 -4.7 23.6 54 -12.6 9.3
20:30 1021 30.15 850 25.1 -4.8 23.4 54 -12.8 9
20:35 1021 30.15 850 25.1 -5.7 21.8 57 -12.9 8.7
20:40 1021 30.15 850 25.1 -5.9 21.4 57 -13.1 8.4
20:45 1021 30.15 850 25.1 -5.6 22 56 -13 8.6
20:50 1021 30.15 850 25.1 -5.3 22.5 55 -12.9 8.7
20:55 1021 30.15 850 25.1 -5.3 22.4 55 -13 8.6
21:00 1021 30.15 850 25.1 -5.3 22.4 55 -13 8.7
21:05 1021 30.15 850 25.1 -4.8 23.3 53 -13 8.7
21:10 1021 30.15 850 25.1 -4.5 24 53 -12.7 9.1
21:15 1021 30.15 850 25.1 -4.7 23.5 53 -12.8 8.9
21:20 1021 30.15 850 25.1 -5.1 22.9 55 -12.9 8.8
21:25 1021 30.15 850 25.1 -5.1 22.9 55 -12.9 8.9
21:30 1021 30.15 850 25.1 -4.9 23.1 55 -12.7 9.1
21:35 1021 30.15 850 25.1 -4.8 23.4 54 -12.7 9.1
21:40 1021 30.15 850 25.1 -4.9 23.1 55 -12.6 9.3
21:45 1021 30.15 850 25.1 -4.7 23.6 54 -12.7 9.2
21:50 1021 30.15 851 25.13 -4.5 24 54 -12.5 9.5
21:55 1021 30.15 851 25.13 -4.2 24.4 53 -12.4 9.6
22:00 1021 30.15 851 25.13 -4.3 24.3 53 -12.5 9.5
22:05 1022 30.18 851 25.13 -4.3 24.3 53 -12.6 9.4
22:10 1022 30.18 851 25.13 -4.5 23.9 54 -12.5 9.6
22:15 1022 30.18 851 25.13 -5 23 55 -12.7 9.2
22:20 1022 30.18 851 25.13 -5.2 22.7 55 -12.8 9
22:25 1022 30.18 851 25.13 -5.5 22.1 57 -12.8 8.9
22:30 1022 30.18 851 25.13 -5.4 22.3 56 -12.9 8.7
22:35 1022 30.18 851 25.13 -5.2 22.7 56 -12.7 9.1
22:40 1022 30.18 851 25.13 -5.7 21.7 56 -13.1 8.5
22:45 1022 30.18 851 25.13 -6.2 20.8 58 -13.2 8.2
22:50 1022 30.18 851 25.13 -6.5 20.4 59 -13.2 8.2
22:55 1022 30.18 851 25.13 -6.7 19.9 62 -12.9 8.8
23:00 1022 30.18 851 25.13 -6.8 19.7 66 -12.2 10
23:05 1022 30.18 851 25.13 -6.2 20.8 62 -12.4 9.7
23:10 1022 30.18 851 25.13 -5.9 21.3 62 -12.1 10.1
23:15 1022 30.18 851 25.13 -6.3 20.6 62 -12.5 9.5
23:20 1022 30.18 851 25.13 -6.6 20.2 62 -12.7 9.2
23:25 1022 30.18 852 25.16 -6.7 19.9 65 -12.3 9.9
23:30 1022 30.18 852 25.16 -6.7 19.9 63 -12.6 9.3
23:35 1022 30.18 852 25.16 -6.6 20 62 -12.8 9
23:40 1022 30.18 852 25.16 -6.7 19.9 62 -12.9 8.9
23:45 1022 30.18 852 25.16 -6.9 19.5 62 -13.1 8.4
23:50 1022 30.18 852 25.16 -6.9 19.6 65 -12.5 9.5
23:55 1023 30.21 852 25.16 -6.7 20 64 -12.5 9.6
24:00 1023 30.21 852 25.16 -7.3 18.9 66 -12.7 9.2